Latest Weather Observations for Flinders Island Airport

IDT60801

Issued at 5:41 am EDT Tuesday 13 November 2018 (issued every 10 minutes, with the page automatically refreshed every 10 minutes)

About weather observations | Map of weather stations | Latest weather observations for TAS | Other Formats
Station Details ID: 099005 Name: FLINDERS ISLAND AIRPORT Lat: -40.09 Lon: 148.00 Height: 9.0 m
Data from the previous 72 hours. | See also: Recent months at Flinders Island Airport
Date/Time
EDT
Temp
°C
App
Temp
°C
Dew
Point
°C
Rel
Hum
%
Delta-T
°C
Wind Press
QNH
hPa
Press
MSL
hPa
Rain since
9am
mm
Dir  Spd
km/h
Gust
km/h
Spd
kts
Gust
kts
13/05:30am 16.0 15.3 15.5 97 0.3 NE 13 19 7 10 1012.5 1012.5 0.0
13/05:00am 16.0 14.5 15.2 95 0.5 ENE 17 24 9 13 1012.0 1012.0 0.0
13/04:30am 17.0 14.9 15.2 89 1.0 NNE 20 30 11 16 1012.0 1012.0 0.0
13/04:00am 16.9 15.3 15.1 89 1.0 ENE 17 26 9 14 1012.1 1012.1 0.0
13/03:30am 16.8 15.2 15.0 89 1.0 ENE 17 24 9 13 1012.5 1012.5 0.0
13/03:00am 16.6 15.0 15.1 91 0.9 ENE 17 28 9 15 1012.8 1012.8 0.0
13/02:30am 17.1 15.6 15.4 90 1.0 ENE 17 26 9 14 1012.9 1012.9 0.0
13/02:00am 16.9 16.5 16.3 96 0.4 NE 13 19 7 10 1013.5 1013.5 0.0
13/01:30am 16.8 16.9 16.6 99 0.1 E 11 15 6 8 1013.9 1013.9 0.0
13/01:00am 16.6 17.6 16.4 99 0.1 E 6 11 3 6 1014.9 1014.9 0.0
13/12:30am 16.6 15.9 16.4 99 0.1 ENE 15 19 8 10 1015.2 1015.2 0.0
13/12:00am 16.9 17.9 16.3 96 0.4 ENE 6 13 3 7 1015.7 1015.7 0.0
 
Date/Time
EDT
Temp
°C
App
Temp
°C
Dew
Point
°C
Rel
Hum
%
Delta-T
°C
Wind Press
QNH
hPa
Press
MSL
hPa
Rain since
9am
mm
Dir  Spd
km/h
Gust
km/h
Spd
kts
Gust
kts
12/11:30pm 16.9 18.0 16.6 98 0.2 NE 6 9 3 5 1015.7 1015.7 0.0
12/11:00pm 16.9 16.7 16.7 99 0.1 ENE 13 17 7 9 1016.3 1016.3 0.0
12/10:30pm 16.5 16.1 16.2 98 0.2 ENE 13 17 7 9 1016.7 1016.7 0.0
12/10:00pm 16.6 17.8 15.8 95 0.5 E 4 9 2 5 1016.7 1016.7 0.0
12/09:30pm 16.8 15.3 16.2 96 0.4 ENE 19 26 10 14 1016.5 1016.5 0.0
12/09:00pm 16.8 16.6 15.8 94 0.6 E 11 15 6 8 1016.8 1016.8 0.0
12/08:30pm 16.9 16.6 15.4 91 0.9 E 11 17 6 9 1016.6 1016.6 0.0
12/08:00pm 17.7 17.5 15.7 88 1.2 NE 11 15 6 8 1016.6 1016.6 0.0
12/07:30pm 18.2 16.4 15.6 85 1.5 NE 19 26 10 14 1016.4 1016.4 0.0
12/07:00pm 18.7 16.7 15.6 82 1.8 NE 20 26 11 14 1016.4 1016.4 0.0
12/06:30pm 19.2 17.8 15.5 79 2.2 NE 17 20 9 11 1016.6 1016.6 0.0
12/06:00pm 19.7 17.7 15.4 76 2.5 NE 20 26 11 14 1016.7 1016.7 0.0
12/05:30pm 20.1 17.7 15.3 74 2.8 ENE 22 30 12 16 1016.8 1016.8 0.0
12/05:00pm 20.4 17.1 15.0 71 3.2 NE 26 33 14 18 1016.7 1016.7 0.0
12/04:30pm 21.3 18.1 15.2 68 3.6 NE 26 33 14 18 1016.8 1016.8 0.0
12/04:00pm 21.1 17.7 14.7 67 3.8 NE 26 35 14 19 1017.0 1017.0 0.0
12/03:30pm 21.0 18.5 15.1 69 3.5 NE 22 30 12 16 1017.2 1017.2 0.0
12/03:00pm 20.7 17.6 14.6 68 3.6 NE 24 32 13 17 1018.1 1018.0 0.0
12/02:30pm 20.8 17.5 14.9 69 3.5 NE 26 32 14 17 1018.7 1018.6 0.0
12/02:00pm 20.8 16.1 14.9 69 3.5 NE 33 44 18 24 1018.7 1018.6 0.0
12/01:30pm 21.4 16.6 14.6 65 4.0 NE 33 41 18 22 1018.7 1018.6 0.0
12/01:00pm 22.1 17.5 14.7 63 4.4 NE 32 41 17 22 1018.8 1018.7 0.0
12/12:30pm 20.8 16.0 14.0 65 3.9 NE 32 39 17 21 1019.2 1019.1 0.0
12/12:00pm 20.8 16.9 14.5 67 3.7 ENE 28 43 15 23 1019.6 1019.5 0.0
12/11:30am 19.8 15.0 14.0 69 3.3 NE 32 41 17 22 1020.0 1019.9 0.0
12/11:09am 19.9 15.9 14.0 69 3.4 ENE 28 46 15 25 1020.1 1020.0 0.0
12/11:00am 19.9 17.1 14.3 70 3.2 ENE 22 32 12 17 1020.3 1020.2 0.0
12/10:30am 18.8 15.2 14.1 74 2.7 E 26 35 14 19 1020.8 1020.7 0.0
12/10:24am 18.1 14.7 13.6 75 2.6 E 24 35 13 19 1020.9 1020.8 0.0
12/10:04am 18.1 15.4 13.6 75 2.6 E 20 32 11 17 1021.1 1021.0 0.0
12/10:00am 18.1 15.1 13.6 75 2.5 E 22 32 12 17 1021.1 1021.0 0.0
12/09:36am 18.2 15.6 13.9 76 2.5 E 20 32 11 17 1021.3 1021.2 0.0
12/09:30am 17.7 14.6 13.4 76 2.4 E 22 32 12 17 1021.4 1021.3 0.0
12/09:00am 17.3 14.5 13.2 77 2.3 ENE 20 28 11 15 1021.6 1021.5 0.0
12/08:30am 16.3 13.9 12.8 80 1.9 ENE 17 26 9 14 1021.6 1021.5 0.0
12/08:18am 15.9 13.9 12.6 81 1.8 E 15 26 8 14 1021.7 1021.6 0.0
12/08:00am 15.3 13.8 13.2 87 1.2 E 13 22 7 12 1021.8 1021.7 0.0
12/07:30am 13.9 13.0 13.7 99 0.1 E 11 19 6 10 1021.9 1021.8 0.0
12/07:00am 10.8 9.9 10.6 99 0.1 ESE 6 9 3 5 1021.9 1021.8 0.0
12/06:30am 8.0 5.8 7.9 99 0.0 ENE 9 11 5 6 1021.8 1021.7 0.0
12/06:00am 6.1 3.5 6.0 99 0.0 ENE 9 13 5 7 1021.6 1021.5 0.0
12/05:30am 5.1 2.3 5.0 99 0.0 ENE 9 11 5 6 1021.5 1021.4 0.0
12/05:00am 3.9 0.8 3.8 99 0.0 ENE 9 11 5 6 1021.7 1021.6 0.0
12/04:30am 3.9 0.1 3.8 99 0.0 ENE 13 15 7 8 1021.7 1021.6 0.0
12/04:00am 4.5 1.2 4.4 99 0.0 ENE 11 13 6 7 1022.0 1021.9 0.0
12/03:30am 4.5 0.8 4.4 99 0.0 ENE 13 15 7 8 1022.2 1022.1 0.0
12/03:00am 5.6 2.9 5.5 99 0.0 NE 9 11 5 6 1022.4 1022.3 0.0
12/02:30am 5.6 1.7 5.5 99 0.0 ENE 15 17 8 9 1022.4 1022.3 0.0
12/02:00am 5.6 4.2 5.5 99 0.0 E 2 9 1 5 1023.2 1023.1 0.0
12/01:30am 5.9 3.2 5.6 98 0.1 NE 9 11 5 6 1023.0 1022.9 0.0
12/01:00am 6.4 4.2 6.1 98 0.1 NNE 7 9 4 5 1023.2 1023.1 0.0
12/12:30am 5.9 2.8 5.6 98 0.1 NE 11 13 6 7 1023.2 1023.1 0.0
12/12:00am 6.3 2.9 5.9 97 0.2 ENE 13 13 7 7 1023.3 1023.2 0.0
 
Date/Time
EDT
Temp
°C
App
Temp
°C
Dew
Point
°C
Rel
Hum
%
Delta-T
°C
Wind Press
QNH
hPa
Press
MSL
hPa
Rain since
9am
mm
Dir  Spd
km/h
Gust
km/h
Spd
kts
Gust
kts
11/11:30pm 6.7 3.0 6.3 97 0.2 NE 15 15 8 8 1023.5 1023.4 0.0
11/11:00pm 7.0 3.7 6.4 96 0.3 ENE 13 15 7 8 1023.8 1023.7 0.0
11/10:30pm 7.3 4.4 6.6 95 0.3 ENE 11 13 6 7 1023.8 1023.7 0.0
11/10:00pm 7.5 4.6 6.4 93 0.5 ENE 11 13 6 7 1023.8 1023.7 0.0
11/09:30pm 8.2 5.7 6.5 89 0.8 NE 9 11 5 6 1023.4 1023.3 0.0
11/09:00pm 8.2 5.9 5.5 83 1.2 ENE 7 9 4 5 1023.1 1023.0 0.0
11/08:30pm 9.3 7.6 5.9 79 1.6 NE 4 9 2 5 1022.8 1022.7 0.0
11/08:00pm 13.5 13.3 9.0 74 2.3 CALM 0 0 0 0 1022.5 1022.4 0.0
11/07:30pm 14.4 12.5 9.2 71 2.7 SW 9 13 5 7 1022.4 1022.3 0.0
11/07:00pm 14.9 12.9 8.8 67 3.1 SW 9 13 5 7 1022.2 1022.1 0.0
11/06:30pm 15.2 13.0 9.3 68 3.0 SW 11 15 6 8 1021.9 1021.8 0.0
11/06:00pm 15.2 12.8 8.7 65 3.3 SW 11 15 6 8 1021.6 1021.5 0.0
11/05:30pm 15.3 12.9 8.8 65 3.3 SW 11 15 6 8 1021.6 1021.5 0.0
11/05:00pm 15.3 12.6 9.0 66 3.2 SW 13 17 7 9 1021.6 1021.5 0.0
11/04:30pm 15.5 13.1 8.5 63 3.5 SW 11 15 6 8 1021.7 1021.6 0.0
11/04:00pm 15.0 12.2 8.7 66 3.2 SW 13 17 7 9 1021.9 1021.8 0.0
11/03:30pm 15.3 12.7 9.2 67 3.1 WSW 13 19 7 10 1022.1 1022.0 0.0
11/03:00pm 15.4 12.4 9.3 67 3.1 WSW 15 19 8 10 1022.3 1022.2 0.0
11/02:30pm 15.9 13.0 9.8 67 3.2 SW 15 19 8 10 1022.4 1022.3 0.0
11/02:00pm 15.8 12.5 9.7 67 3.2 WSW 17 20 9 11 1022.2 1022.1 0.0
11/01:30pm 15.8 12.5 9.5 66 3.3 SW 17 22 9 12 1022.2 1022.1 0.0
11/01:00pm 15.6 11.8 9.1 65 3.3 WSW 19 24 10 13 1022.1 1022.0 0.0
11/12:30pm 15.6 11.8 9.7 68 3.1 WSW 20 26 11 14 1022.0 1021.9 0.0
11/12:00pm 15.1 10.9 8.1 63 3.5 WSW 20 26 11 14 1021.9 1021.8 0.0
11/11:30am 15.2 11.4 9.1 67 3.1 WSW 19 24 10 13 1021.9 1021.8 0.0
11/11:00am 14.6 11.1 8.8 68 2.9 WSW 17 22 9 12 1022.0 1021.9 0.0
11/10:30am 15.1 11.3 9.9 71 2.7 WSW 20 24 11 13 1021.9 1021.8 0.0
11/10:00am 15.1 10.6 8.6 65 3.3 WSW 22 28 12 15 1021.8 1021.7 0.0
11/09:30am 15.1 10.7 10.5 74 2.4 W 24 30 13 16 1021.8 1021.7 0.0
11/09:00am 14.3 9.1 10.1 76 2.2 WSW 28 32 15 17 1021.8 1021.7 0.0
11/08:30am 14.6 9.5 7.6 63 3.5 W 24 30 13 16 1021.5 1021.4 0.0
11/08:00am 14.2 9.1 9.2 72 2.5 W 26 30 14 16 1021.2 1021.1 0.0
11/07:30am 13.5 8.5 9.7 78 1.9 W 26 30 14 16 1020.8 1020.7 0.0
11/07:00am 13.0 9.1 9.6 80 1.7 W 20 26 11 14 1020.6 1020.5 0.0
11/06:30am 13.0 8.1 8.3 73 2.3 W 24 30 13 16 1020.3 1020.2 0.0
11/06:00am 12.6 8.6 8.9 78 1.8 WSW 20 26 11 14 1019.9 1019.8 0.0
11/05:30am 12.5 5.6 10.2 86 1.2 W 37 43 20 23 1019.8 1019.7 0.0
11/05:00am 12.8 7.8 7.9 72 2.4 W 24 33 13 18 1019.5 1019.4 0.0
11/04:30am 12.7 7.6 7.8 72 2.4 WNW 24 30 13 16 1019.4 1019.3 0.0
11/04:00am 12.8 7.1 8.5 75 2.1 WNW 28 33 15 18 1019.2 1019.1 0.0
11/03:30am 12.6 7.8 8.9 78 1.9 WNW 24 32 13 17 1019.1 1019.0 0.0
11/03:00am 13.0 8.4 9.8 81 1.6 WNW 24 33 13 18 1018.9 1018.8 0.0
11/02:30am 12.7 8.2 9.9 83 1.4 WNW 24 33 13 18 1018.9 1018.8 0.0
11/02:00am 12.8 8.3 10.0 83 1.4 WNW 24 32 13 17 1019.0 1018.9 0.0
11/01:30am 12.6 8.1 10.0 84 1.3 WNW 24 33 13 18 1019.1 1019.0 0.0
11/01:00am 12.9 8.4 10.1 83 1.4 WNW 24 32 13 17 1019.2 1019.1 0.0
11/12:30am 12.8 7.9 10.0 83 1.4 WNW 26 32 14 17 1019.4 1019.3 0.0
11/12:17am 13.0 8.3 10.5 85 1.3 WNW 26 32 14 17 1019.5 1019.4 0.0
11/12:07am 12.9 8.5 10.4 85 1.3 WNW 24 30 13 16 1019.5 1019.4 0.0
11/12:00am 12.8 8.4 10.3 85 1.3 WNW 24 33 13 18 1019.4 1019.3 0.0
 
Date/Time
EDT
Temp
°C
App
Temp
°C
Dew
Point
°C
Rel
Hum
%
Delta-T
°C
Wind Press
QNH
hPa
Press
MSL
hPa
Rain since
9am
mm
Dir  Spd
km/h
Gust
km/h
Spd
kts
Gust
kts
10/11:30pm 12.8 8.8 10.3 85 1.3 WNW 22 28 12 15 1019.4 1019.3 0.0
10/11:00pm 13.0 9.0 10.4 84 1.3 WNW 22 30 12 16 1019.3 1019.2 0.0
10/10:30pm 12.9 8.8 10.1 83 1.4 WNW 22 30 12 16 1019.1 1019.0 0.0
10/10:00pm 13.1 8.9 9.7 80 1.7 WNW 22 28 12 15 1018.9 1018.8 0.0
10/09:30pm 13.0 9.1 9.6 80 1.7 WNW 20 28 11 15 1018.9 1018.8 0.0
10/09:00pm 13.2 9.3 9.5 78 1.9 W 20 26 11 14 1018.6 1018.5 0.0
10/08:30pm 13.4 8.4 9.5 77 2.0 W 26 32 14 17 1018.3 1018.2 0.0
10/08:00pm 13.6 8.5 9.1 74 2.3 WNW 26 33 14 18 1018.1 1018.0 0.0
10/07:30pm 13.9 9.3 9.5 75 2.3 WNW 24 32 13 17 1018.0 1017.9 0.0
10/07:00pm 14.4 9.3 9.2 71 2.6 W 26 35 14 19 1017.8 1017.8 0.0
10/06:30pm 15.3 10.6 10.5 73 2.5 W 26 32 14 17 1017.5 1017.5 0.0
10/06:00pm 15.1 10.4 10.5 74 2.4 WNW 26 33 14 18 1017.5 1017.5 0.0
10/05:30pm 15.9 11.5 10.4 70 2.9 W 24 30 13 16 1017.3 1017.3 0.0
10/05:00pm 16.2 11.4 10.3 68 3.1 W 26 32 14 17 1017.3 1017.3 0.0
10/04:30pm 15.6 11.4 11.0 74 2.5 W 24 30 13 16 1017.1 1017.1 0.0
10/04:00pm 16.3 11.1 10.4 68 3.1 WSW 28 35 15 19 1017.1 1017.1 0.0
10/03:30pm 16.2 10.6 10.1 67 3.2 WNW 30 37 16 20 1017.3 1017.3 0.0
10/03:00pm 16.4 11.1 9.8 65 3.4 WNW 28 35 15 19 1017.4 1017.4 0.0
10/02:30pm 16.5 11.8 10.8 69 3.0 WNW 26 33 14 18 1017.6 1017.6 0.0
10/02:00pm 16.3 11.5 10.4 68 3.1 WNW 26 33 14 18 1017.6 1017.6 0.0
10/01:30pm 17.1 13.0 11.4 69 3.1 WNW 24 35 13 19 1017.6 1017.6 0.0
10/01:00pm 16.1 11.6 10.2 68 3.1 WNW 24 28 13 15 1017.5 1017.5 0.0
10/12:30pm 16.3 11.7 11.0 71 2.8 WNW 26 33 14 18 1017.7 1017.7 0.0
10/12:00pm 15.9 11.3 11.1 73 2.6 WNW 26 35 14 19 1018.0 1017.9 0.0
10/11:30am 16.0 11.4 11.2 73 2.6 WNW 26 32 14 17 1017.8 1017.8 0.0
10/11:00am 16.2 11.7 11.4 73 2.6 WNW 26 33 14 18 1017.8 1017.8 0.0
10/10:30am 15.2 10.9 10.6 74 2.4 WNW 24 33 13 18 1017.7 1017.7 0.0
10/10:00am 15.0 10.4 9.6 70 2.8 NW 24 30 13 16 1017.5 1017.5 0.0
10/09:30am 15.1 9.8 9.9 71 2.7 WNW 28 37 15 20 1017.5 1017.5 0.0
10/09:00am 15.0 10.5 10.0 72 2.6 NW 24 30 13 16 1017.4 1017.4 2.0
10/08:30am 14.6 9.7 10.0 74 2.4 NW 26 32 14 17 1017.2 1017.2 2.0
10/08:00am 14.4 10.5 9.6 73 2.5 NW 20 32 11 17 1017.0 1017.0 2.0
10/07:30am 13.7 10.9 10.1 79 1.9 NNW 15 22 8 12 1016.9 1016.9 2.0
10/07:00am 12.8 10.5 10.3 85 1.3 NNW 13 19 7 10 1016.8 1016.8 2.0
10/06:30am 12.4 10.1 10.3 87 1.1 NNW 13 17 7 9 1016.5 1016.5 2.0
10/06:00am 12.2 9.9 10.4 89 0.9 NW 13 17 7 9 1016.4 1016.4 2.0
10/05:42am 12.2 9.6 10.6 90 0.8 NNW 15 20 8 11 1016.1 1016.1 2.0

Other Formats:

Comma delimited format used in spreadsheet applications
http://www.bom.gov.au/fwo/IDT60801/IDT60801.94980.axf

JavaScript Object Notation format (JSON) in row-major order
http://www.bom.gov.au/fwo/IDT60801/IDT60801.94980.json